Time;durP1;ratioP1;P1;durP2;ratioP2;P2;SDS_P1;SDS_P2;PMS_P1;PMS_P2;Temp;Humidity;BMP_temperature;BMP_pressure;BME280_temperature;BME280_humidity;BME280_pressure;Samples;Min_cycle;Max_cycle;Signal;HPM_P1;HPM_P2
2021/12/07 00:00:30;;;;;;;48.70;46.38;;;;;;;20.68;40.92;100326.53;4956489;29;20431;-79
2021/12/07 00:02:55;;;;;;;47.17;44.85;;;;;;;20.66;41.02;100319.75;4958319;29;20043;-79
2021/12/07 00:05:21;;;;;;;48.78;46.28;;;;;;;20.65;41.32;100324.44;4956667;28;20039;-79
2021/12/07 00:07:47;;;;;;;49.00;46.40;;;;;;;20.65;41.21;100324.44;4924934;29;20067;-79
2021/12/07 00:10:14;;;;;;;49.00;46.40;;;;;;;20.64;41.41;100325.59;4956776;28;20122;-79
2021/12/07 00:12:42;;;;;;;47.50;45.17;;;;;;;20.64;41.46;100319.31;4957972;28;20028;-78
2021/12/07 00:15:10;;;;;;;49.88;47.45;;;;;;;20.64;41.19;100330.28;4957048;28;20063;-80
2021/12/07 00:17:35;;;;;;;46.70;44.40;;;;;;;20.64;41.28;100330.28;4940336;29;20030;-79
2021/12/07 00:20:06;;;;;;;48.25;45.95;;;;;;;20.63;41.11;100321.22;4956247;28;20362;-79
2021/12/07 00:22:31;;;;;;;47.38;45.13;;;;;;;20.61;41.23;100326.22;4957325;29;20070;-79
2021/12/07 00:24:57;;;;;;;47.67;45.35;;;;;;;20.62;41.17;100335.28;4940434;29;20070;-79
2021/12/07 00:27:22;;;;;;;49.38;46.95;;;;;;;20.60;40.99;100335.59;4956307;29;20039;-79
2021/12/07 00:29:48;;;;;;;48.75;46.22;;;;;;;20.59;41.07;100342.22;4940179;29;20040;-78
2021/12/07 00:32:29;;;;;;;49.05;46.65;;;;;;;20.58;41.50;100348.81;4957739;29;20049;-79
2021/12/07 00:37:42;;;;;;;47.42;45.03;;;;;;;20.57;40.93;100352.69;4957645;29;20049;-79
2021/12/07 00:40:10;;;;;;;48.63;46.22;;;;;;;20.56;41.22;100355.75;4940239;29;20037;-79
2021/12/07 00:42:36;;;;;;;47.03;44.63;;;;;;;20.54;40.86;100367.03;4957218;28;20109;-79
2021/12/07 00:45:02;;;;;;;51.85;49.22;;;;;;;20.54;40.82;100369.78;4939937;29;20475;-81
2021/12/07 00:47:28;;;;;;;49.42;46.53;;;;;;;20.52;40.93;100366.53;4955882;29;20581;-80
2021/12/07 00:49:53;;;;;;;47.97;45.67;;;;;;;20.51;40.68;100375.88;4939824;29;20090;-81
2021/12/07 00:52:19;;;;;;;46.80;44.50;;;;;;;20.50;41.04;100377.81;4940653;29;20436;-81
2021/12/07 00:54:44;;;;;;;47.58;45.20;;;;;;;20.49;40.88;100381.69;4955921;28;20410;-81
2021/12/07 00:57:10;;;;;;;47.55;45.15;;;;;;;20.48;40.87;100380.06;4956226;28;20407;-82
2021/12/07 00:59:36;;;;;;;48.65;46.35;;;;;;;20.46;40.56;100382.34;4956926;29;20027;-81
2021/12/07 01:02:01;;;;;;;48.03;45.65;;;;;;;20.45;40.48;100383.44;4939556;29;20039;-81
2021/12/07 01:04:28;;;;;;;50.13;47.35;;;;;;;20.45;40.73;100385.38;4939110;29;20045;-81
2021/12/07 01:09:44;;;;;;;47.67;45.17;;;;;;;20.43;40.65;100404.09;4939663;29;20395;-81
2021/12/07 01:25:55;;;;;;;47.22;44.80;;;;;;;20.33;40.35;100438.09;4956877;29;20138;-80
2021/12/07 01:28:37;;;;;;;47.88;45.30;;;;;;;20.33;40.66;100438.09;4939648;29;20114;-80
2021/12/07 01:31:26;;;;;;;47.58;45.25;;;;;;;20.32;40.57;100442.78;4957523;29;20039;-80
2021/12/07 01:45:22;;;;;;;46.85;44.45;;;;;;;20.25;40.15;100461.63;4974113;28;20039;-81
2021/12/07 01:53:16;;;;;;;;;;;;;;;20.21;40.37;100482.59;4956363;28;20039;-79
2021/12/07 02:00:58;;;;;;;47.40;45.20;;;;;;;20.17;40.28;100498.03;4941781;29;20078;-81
2021/12/07 02:03:24;;;;;;;;;;;;;;;20.16;40.44;100501.06;4956184;29;20042;-81
2021/12/07 02:05:50;;;;;;;45.60;43.40;;;;;;;20.15;40.47;100496.72;4938589;29;20009;-81
2021/12/07 02:08:15;;;;;;;46.50;44.20;;;;;;;20.14;40.44;100504.16;4954769;29;20420;-80
2021/12/07 02:10:41;;;;;;;48.45;46.13;;;;;;;20.14;40.60;100508.84;4955304;29;20059;-81
2021/12/07 02:13:21;;;;;;;48.65;46.35;;;;;;;20.13;40.42;100516.22;4954101;28;20078;-81
2021/12/07 02:15:48;;;;;;;47.28;44.88;;;;;;;20.13;40.48;100518.16;4940215;28;20031;-80
2021/12/07 02:18:13;;;;;;;46.70;44.50;;;;;;;20.12;40.60;100522.03;4955467;28;20043;-81
2021/12/07 02:20:39;;;;;;;46.85;44.40;;;;;;;20.13;40.47;100518.16;4938385;29;20035;-81
2021/12/07 02:23:04;;;;;;;46.95;44.45;;;;;;;20.12;40.67;100531.06;4954359;29;20035;-81
2021/12/07 02:25:32;;;;;;;49.42;46.92;;;;;;;20.11;40.38;100526.72;4954634;29;20031;-80
2021/12/07 02:27:57;;;;;;;47.50;45.03;;;;;;;20.11;40.55;100526.72;4938280;29;20059;-81
2021/12/07 02:30:25;;;;;;;47.95;45.53;;;;;;;20.10;40.39;100527.81;4954215;28;20166;-81
2021/12/07 02:32:54;;;;;;;47.23;44.83;;;;;;;20.09;40.37;100537.19;4938187;29;20036;-80
2021/12/07 02:35:26;;;;;;;47.47;45.13;;;;;;;20.08;40.20;100544.59;4954187;29;20318;-81
2021/12/07 02:37:53;;;;;;;46.58;44.17;;;;;;;20.08;40.53;100541.03;4939619;29;20459;-81
2021/12/07 02:40:19;;;;;;;47.40;44.95;;;;;;;20.07;40.63;100544.91;4938069;29;20192;-82
2021/12/07 02:42:45;;;;;;;46.45;44.15;;;;;;;20.06;40.44;100546.03;4955400;29;20068;-80
2021/12/07 02:45:10;;;;;;;45.25;43.05;;;;;;;20.06;40.45;100554.25;4954071;28;20534;-80
2021/12/07 02:47:36;;;;;;;46.42;44.13;;;;;;;20.05;40.46;100560.84;4938002;29;20031;-80
2021/12/07 02:50:04;;;;;;;46.05;43.65;;;;;;;20.04;40.42;100562.78;4954375;29;20379;-80
2021/12/07 02:52:29;;;;;;;46.88;44.58;;;;;;;20.03;40.50;100566.66;4954694;28;20475;-81
2021/12/07 02:54:55;;;;;;;46.25;43.92;;;;;;;20.03;40.50;100569.41;4937918;29;20059;-81
2021/12/07 02:57:21;;;;;;;46.35;44.13;;;;;;;20.04;40.48;100581.19;4938013;29;20054;-81
2021/12/07 02:59:57;;;;;;;46.70;44.30;;;;;;;20.03;40.39;100585.03;4937719;29;20031;-80
2021/12/07 03:02:23;;;;;;;47.60;45.20;;;;;;;20.01;40.69;100585.34;4939435;29;20027;-82
2021/12/07 03:05:03;;;;;;;47.45;44.95;;;;;;;20.01;40.54;100579.06;4954109;29;20027;-80
2021/12/07 03:26:38;;;;;;;47.72;45.28;;;;;;;19.92;40.70;100603.63;4955287;29;20066;-80
2021/12/07 03:29:04;;;;;;;45.67;43.38;;;;;;;19.93;40.78;100612.66;4957160;28;20031;-81
2021/12/07 03:31:30;;;;;;;46.58;44.33;;;;;;;19.92;40.65;100609.13;4941857;29;20047;-80
2021/12/07 03:33:58;;;;;;;44.30;42.10;;;;;;;19.91;40.63;100620.38;4942102;29;20039;-80
2021/12/07 03:36:25;;;;;;;43.97;41.88;;;;;;;19.91;40.79;100623.13;4942181;29;20027;-81
2021/12/07 03:38:50;;;;;;;46.65;44.30;;;;;;;19.90;40.51;100622.31;4941637;29;20035;-81
2021/12/07 03:41:17;;;;;;;46.22;43.92;;;;;;;19.89;40.64;100626.19;4941526;29;20361;-80
2021/12/07 03:43:43;;;;;;;45.88;43.47;;;;;;;19.88;40.56;100633.63;4942004;29;20125;-81
2021/12/07 03:46:09;;;;;;;45.75;43.30;;;;;;;19.88;40.66;100635.53;4941741;29;20559;-81
2021/12/07 03:48:36;;;;;;;46.53;44.15;;;;;;;19.88;40.83;100627.28;4941763;29;20036;-81
2021/12/07 03:51:03;;;;;;;44.65;42.15;;;;;;;19.87;40.69;100626.50;4957270;29;20396;-81
2021/12/07 03:53:28;;;;;;;45.15;42.88;;;;;;;19.87;40.63;100625.69;4957875;28;20122;-82
2021/12/07 03:55:54;;;;;;;45.45;43.05;;;;;;;19.85;40.71;100631.47;4940884;29;20472;-81
2021/12/07 03:58:20;;;;;;;45.40;43.10;;;;;;;19.85;40.73;100636.16;4956887;28;20045;-81
2021/12/07 04:00:47;;;;;;;46.03;43.83;;;;;;;19.85;40.78;100641.63;4940553;29;20031;-81
2021/12/07 04:03:14;;;;;;;46.90;44.50;;;;;;;19.84;40.63;100637.28;4941357;29;20043;-81
2021/12/07 04:05:47;;;;;;;47.33;45.03;;;;;;;19.83;41.06;100646.59;4940940;29;20055;-79
2021/12/07 04:08:15;;;;;;;46.17;43.78;;;;;;;19.83;40.76;100643.84;4940689;29;20123;-78
2021/12/07 04:10:41;;;;;;;47.30;44.80;;;;;;;19.82;40.50;100636.75;4956465;29;20047;-79
2021/12/07 04:13:06;;;;;;;46.53;44.03;;;;;;;19.82;40.92;100647.72;4941226;29;20039;-79
2021/12/07 04:15:32;;;;;;;47.13;44.72;;;;;;;19.81;40.89;100655.16;4956573;28;20456;-79
2021/12/07 04:17:58;;;;;;;45.72;43.33;;;;;;;19.81;40.82;100659.81;4956875;29;20041;-78
2021/12/07 04:20:24;;;;;;;45.65;43.47;;;;;;;19.80;40.75;100645.28;4940721;29;20027;-79
2021/12/07 04:22:50;;;;;;;45.17;42.85;;;;;;;19.81;40.80;100665.31;4956750;29;20062;-79
2021/12/07 04:25:17;;;;;;;44.00;41.65;;;;;;;19.80;41.00;100664.47;4940626;29;20443;-78
2021/12/07 04:27:43;;;;;;;45.85;43.45;;;;;;;19.79;40.77;100667.53;4956872;28;20038;-78
2021/12/07 04:30:19;;;;;;;45.53;43.22;;;;;;;19.80;40.69;100669.16;4941154;29;20043;-78
2021/12/07 04:32:45;;;;;;;46.33;43.92;;;;;;;19.80;41.04;100664.47;4956728;29;20031;-80
2021/12/07 04:35:12;;;;;;;46.55;44.22;;;;;;;19.79;41.01;100656.56;4940717;29;20035;-81
2021/12/07 04:37:38;;;;;;;45.85;43.65;;;;;;;19.78;40.72;100666.72;4940302;29;20094;-80
2021/12/07 04:40:07;;;;;;;46.40;44.00;;;;;;;19.78;40.69;100676.84;4939405;29;20089;-80
2021/12/07 04:42:33;;;;;;;46.05;43.70;;;;;;;19.78;40.50;100674.94;4956977;28;20035;-80
2021/12/07 04:45:02;;;;;;;45.92;43.58;;;;;;;19.77;40.75;100673.31;4939970;29;20039;-80
2021/12/07 04:50:32;;;;;;;45.53;43.35;;;;;;;19.77;40.75;100669.75;4957421;29;20453;-80
2021/12/07 04:58:26;;;;;;;44.45;42.25;;;;;;;19.75;40.56;100661.84;4956644;29;20046;-80
2021/12/07 05:00:51;;;;;;;44.85;42.55;;;;;;;19.74;40.71;100667.66;4956673;28;20031;-80
2021/12/07 05:03:17;;;;;;;44.95;42.65;;;;;;;19.74;40.71;100676.66;4940345;29;20479;-80
2021/12/07 05:05:49;;;;;;;45.35;43.05;;;;;;;19.72;40.52;100672.59;4939964;29;20043;-80
2021/12/07 05:08:28;;;;;;;44.20;42.03;;;;;;;19.73;40.54;100672.31;4941526;29;20074;-79
2021/12/07 05:24:05;;;;;;;44.22;42.00;;;;;;;19.67;40.69;100700.94;4957014;29;20114;-80
2021/12/07 05:40:10;;;;;;;43.72;41.63;;;;;;;19.64;40.72;100731.66;4942373;29;20050;-80
2021/12/07 05:42:36;;;;;;;44.65;42.45;;;;;;;19.64;40.52;100737.13;4954744;29;20034;-79
2021/12/07 05:45:04;;;;;;;44.30;42.10;;;;;;;19.63;40.78;100740.97;4955383;28;20042;-79
2021/12/07 05:47:30;;;;;;;44.78;42.50;;;;;;;19.62;40.66;100745.66;4939336;29;20042;-79
2021/12/07 05:49:55;;;;;;;46.45;43.83;;;;;;;19.62;40.48;100742.09;4938831;29;20035;-80
2021/12/07 05:52:21;;;;;;;44.78;42.58;;;;;;;19.62;40.65;100747.59;4954476;28;20061;-80
2021/12/07 05:54:46;;;;;;;44.90;42.45;;;;;;;19.61;40.72;100751.44;4938553;29;20405;-79
2021/12/07 05:57:13;;;;;;;45.17;42.97;;;;;;;19.61;40.63;100743.22;4938932;29;20460;-80
2021/12/07 05:59:39;;;;;;;45.33;43.00;;;;;;;19.59;40.85;100738.03;4954483;28;20142;-79
2021/12/07 06:02:05;;;;;;;44.20;41.97;;;;;;;19.59;40.73;100740.78;4956015;29;20527;-80
2021/12/07 06:04:31;;;;;;;44.75;42.38;;;;;;;19.59;40.56;100745.44;4954634;28;20135;-80
2021/12/07 06:06:57;;;;;;;44.25;42.05;;;;;;;19.59;40.67;100745.44;4938853;29;20083;-80
2021/12/07 06:09:24;;;;;;;44.72;42.53;;;;;;;19.58;40.50;100752.03;4939365;29;20241;-79
2021/12/07 06:11:50;;;;;;;45.38;42.97;;;;;;;19.57;40.55;100753.16;4954929;29;20067;-80
2021/12/07 06:14:19;;;;;;;45.63;43.13;;;;;;;19.57;40.69;100753.16;4923008;29;20423;-80
2021/12/07 06:16:46;;;;;;;45.72;43.42;;;;;;;19.55;40.80;100755.38;4938669;29;20031;-80
2021/12/07 06:19:12;;;;;;;44.17;41.78;;;;;;;19.56;40.50;100759.75;4939222;29;20035;-80
2021/12/07 06:21:37;;;;;;;44.08;41.97;;;;;;;19.55;40.95;100766.34;4954621;29;20436;-81
2021/12/07 06:24:03;;;;;;;44.53;42.42;;;;;;;19.54;40.53;100751.84;4938649;29;20039;-80
2021/12/07 06:26:28;;;;;;;43.70;41.40;;;;;;;19.53;40.81;100761.19;4954565;28;20220;-80
2021/12/07 06:28:54;;;;;;;45.65;43.33;;;;;;;19.53;40.70;100763.91;4954985;28;20042;-80
2021/12/07 06:31:19;;;;;;;45.40;43.10;;;;;;;19.52;40.70;100769.69;4938122;29;20038;-80
2021/12/07 06:33:45;;;;;;;46.08;43.78;;;;;;;19.52;40.72;100762.28;4938308;29;20058;-80
2021/12/07 06:36:12;;;;;;;45.22;42.80;;;;;;;19.52;40.71;100766.94;4938079;29;20046;-81
2021/12/07 06:38:37;;;;;;;44.22;42.10;;;;;;;19.51;40.55;100766.16;4938371;29;20031;-81
2021/12/07 06:41:05;;;;;;;44.28;42.08;;;;;;;19.52;40.70;100769.69;4938066;29;20098;-82
2021/12/07 06:43:31;;;;;;;44.53;42.33;;;;;;;19.50;40.54;100763.69;4953780;28;20046;-82
2021/12/07 06:45:57;;;;;;;46.13;43.63;;;;;;;19.49;40.74;100764.81;4938577;29;20468;-81
2021/12/07 06:48:22;;;;;;;54.55;49.33;;;;;;;19.49;40.66;100762.88;4954102;29;20122;-79
2021/12/07 06:50:49;;;;;;;55.67;50.30;;;;;;;19.48;41.24;100763.19;4937929;29;20032;-81
2021/12/07 06:53:15;;;;;;;55.00;49.28;;;;;;;19.51;41.37;100759.84;4937656;28;20035;-82
2021/12/07 06:55:41;;;;;;;52.30;47.65;;;;;;;19.51;41.39;100768.06;4955128;29;20357;-81
2021/12/07 06:58:06;;;;;;;52.55;48.05;;;;;;;19.52;41.82;100764.22;4938043;29;20039;-82
2021/12/07 07:00:33;;;;;;;49.88;46.33;;;;;;;19.52;41.66;100772.44;4938643;29;20147;-81
2021/12/07 07:02:58;;;;;;;49.75;46.22;;;;;;;19.52;41.76;100780.66;4956492;28;20032;-82
2021/12/07 07:05:24;;;;;;;49.17;46.00;;;;;;;19.52;41.73;100769.69;4941675;29;20031;-82
2021/12/07 07:07:50;;;;;;;49.97;46.75;;;;;;;19.54;41.47;100772.94;4958364;29;20431;-82
2021/12/07 07:10:17;;;;;;;48.25;45.13;;;;;;;19.54;41.33;100770.22;4942555;29;20080;-82
2021/12/07 07:12:43;;;;;;;48.63;45.25;;;;;;;19.52;41.63;100767.75;4926287;29;20109;-81
2021/12/07 07:15:09;;;;;;;49.55;45.70;;;;;;;19.53;41.55;100769.41;4958486;29;20407;-81
2021/12/07 07:17:35;;;;;;;48.38;44.97;;;;;;;19.52;41.50;100772.44;4958960;29;20115;-81
2021/12/07 07:20:02;;;;;;;48.15;44.92;;;;;;;19.52;41.48;100772.44;4941713;29;20118;-81
2021/12/07 07:22:28;;;;;;;48.50;45.45;;;;;;;19.51;41.23;100785.31;4941986;29;20113;-83
2021/12/07 07:24:53;;;;;;;48.38;45.50;;;;;;;19.52;41.75;100786.13;4958488;29;20070;-81
2021/12/07 07:27:19;;;;;;;48.13;45.05;;;;;;;19.52;41.55;100783.38;4958665;29;20456;-82
2021/12/07 07:29:45;;;;;;;47.13;44.42;;;;;;;19.52;41.41;100777.91;4957625;28;20038;-82
2021/12/07 07:32:11;;;;;;;47.50;44.63;;;;;;;19.51;41.45;100776.28;4958002;29;20038;-80
2021/12/07 07:34:36;;;;;;;48.65;44.10;;;;;;;19.51;41.44;100779.03;4941071;29;20118;-81
2021/12/07 07:37:02;;;;;;;47.45;44.53;;;;;;;19.51;41.50;100779.84;4956999;29;20127;-81
2021/12/07 07:39:28;;;;;;;47.47;44.60;;;;;;;19.50;41.85;100780.94;4941773;29;20456;-80
2021/12/07 07:41:53;;;;;;;45.58;42.88;;;;;;;19.51;41.59;100777.09;4958017;28;20047;-80
2021/12/07 07:44:19;;;;;;;45.90;43.00;;;;;;;19.51;41.98;100768.88;4940935;29;20076;-82
2021/12/07 07:46:44;;;;;;;47.67;44.38;;;;;;;19.53;41.77;100774.88;4940867;29;20031;-81
2021/12/07 07:49:10;;;;;;;46.33;43.80;;;;;;;19.53;41.88;100766.66;4958007;29;20039;-81
2021/12/07 07:51:36;;;;;;;44.85;42.33;;;;;;;19.55;41.50;100763.59;4941049;29;20043;-81
2021/12/07 07:54:02;;;;;;;48.20;45.20;;;;;;;19.55;41.58;100758.94;4940297;29;20383;-82
2021/12/07 07:56:29;;;;;;;44.90;42.25;;;;;;;19.58;41.57;100765.72;4940574;29;20097;-83
2021/12/07 07:58:55;;;;;;;46.97;44.00;;;;;;;19.59;41.71;100764.63;4940575;29;20368;-83
2021/12/07 08:01:23;;;;;;;45.80;42.78;;;;;;;19.61;41.92;100773.38;4956510;29;20531;-84
2021/12/07 08:03:50;;;;;;;45.55;42.50;;;;;;;19.62;41.33;100772.25;4940043;29;20425;-83
2021/12/07 08:06:16;;;;;;;45.92;42.97;;;;;;;19.63;41.45;100785.66;4957209;28;20442;-82
2021/12/07 08:08:41;;;;;;;46.80;43.95;;;;;;;19.64;41.61;100787.25;4956311;29;20035;-82
2021/12/07 08:11:07;;;;;;;45.95;43.20;;;;;;;19.65;41.54;100786.16;4940373;29;20154;-82
2021/12/07 08:13:32;;;;;;;45.05;42.55;;;;;;;19.66;41.42;100786.97;4957832;28;20028;-81
2021/12/07 08:15:58;;;;;;;47.08;44.17;;;;;;;19.67;41.24;100796.84;4957107;29;20228;-83
2021/12/07 08:18:23;;;;;;;47.42;44.95;;;;;;;19.67;41.25;100808.59;4940678;29;20036;-79
2021/12/07 08:20:49;;;;;;;47.20;44.20;;;;;;;19.69;41.43;100805.56;4939910;29;20129;-83
2021/12/07 08:23:14;;;;;;;45.17;42.47;;;;;;;19.70;41.48;100807.19;4955850;29;20031;-82
2021/12/07 08:25:43;;;;;;;45.88;42.90;;;;;;;19.73;41.26;100814.00;4955885;28;20499;-79
2021/12/07 08:28:11;;;;;;;;;;;;;;;19.71;41.25;100811.56;4957604;29;20034;-79
2021/12/07 08:30:37;;;;;;;45.13;42.65;;;;;;;19.73;41.16;100814.00;4956002;29;19910;-79
2021/12/07 08:33:04;;;;;;;48.55;45.53;;;;;;;19.74;41.03;100818.38;4956794;29;20043;-78
2021/12/07 08:35:29;;;;;;;47.00;44.58;;;;;;;19.75;41.31;100809.84;4957475;28;20090;-79
2021/12/07 08:37:55;;;;;;;47.30;44.65;;;;;;;19.77;41.21;100806.81;4958466;29;20468;-78
2021/12/07 08:40:24;;;;;;;47.72;44.83;;;;;;;19.78;40.88;100790.06;4955883;28;20036;-80
2021/12/07 08:42:50;;;;;;;49.33;46.58;;;;;;;19.80;41.00;100793.28;4939911;29;20376;-78
2021/12/07 08:45:16;;;;;;;47.40;44.80;;;;;;;19.81;41.41;100789.44;4955890;29;20062;-79
2021/12/07 08:47:42;;;;;;;46.92;44.38;;;;;;;19.84;41.02;100797.06;4956068;29;20456;-80
2021/12/07 08:50:13;;;;;;;47.65;44.85;;;;;;;19.88;41.31;100792.59;4939402;29;20403;-79
2021/12/07 08:52:38;;;;;;;46.58;44.20;;;;;;;19.92;41.27;100792.00;4955753;29;20126;-81
2021/12/07 09:00:32;;;;;;;45.35;42.85;;;;;;;20.02;41.55;100775.34;4943316;29;20082;-78
2021/12/07 09:02:57;;;;;;;50.85;48.08;;;;;;;20.04;41.74;100767.63;4956473;29;20484;-78
2021/12/07 09:05:24;;;;;;;46.05;43.67;;;;;;;20.09;41.41;100778.47;4954915;28;20066;-78
2021/12/07 09:07:50;;;;;;;48.10;45.47;;;;;;;20.11;41.63;100773.50;4955447;28;20448;-78
2021/12/07 09:10:15;;;;;;;47.63;45.13;;;;;;;20.14;41.83;100783.88;4956115;29;20031;-78
2021/12/07 09:12:41;;;;;;;47.20;44.63;;;;;;;20.19;41.95;100791.97;4956485;29;20027;-78
2021/12/07 09:15:07;;;;;;;48.63;46.13;;;;;;;20.21;41.77;100788.91;4938829;29;20044;-78
2021/12/07 09:17:32;;;;;;;48.75;46.35;;;;;;;20.23;42.02;100784.75;4939315;29;20038;-78
2021/12/07 09:19:58;;;;;;;48.80;46.30;;;;;;;20.27;41.86;100776.72;4956516;29;20048;-78
2021/12/07 09:22:23;;;;;;;48.90;46.25;;;;;;;20.29;41.72;100780.78;4956876;29;20102;-79
2021/12/07 09:24:49;;;;;;;50.10;47.40;;;;;;;20.32;41.98;100774.69;4939644;29;20031;-80
2021/12/07 09:27:18;;;;;;;48.55;46.15;;;;;;;20.36;42.02;100768.59;4954775;28;20460;-79
2021/12/07 09:29:44;;;;;;;49.28;46.38;;;;;;;20.37;41.88;100779.25;4939660;29;20499;-77
2021/12/07 09:32:10;;;;;;;49.85;46.70;;;;;;;20.38;41.54;100775.38;4955748;28;20035;-79
2021/12/07 09:34:35;;;;;;;49.72;46.92;;;;;;;20.38;41.24;100772.63;4956630;28;20095;-81
2021/12/07 09:37:01;;;;;;;50.70;47.47;;;;;;;20.39;40.75;100773.47;4939284;29;20035;-80
2021/12/07 09:39:26;;;;;;;49.00;46.58;;;;;;;20.39;40.39;100771.53;4939146;29;20174;-80
2021/12/07 09:41:52;;;;;;;49.92;47.00;;;;;;;20.40;40.90;100770.41;4956348;29;20073;-80
2021/12/07 09:44:18;;;;;;;51.85;49.25;;;;;;;20.41;40.60;100771.22;4938249;29;20118;-79
2021/12/07 09:46:44;;;;;;;49.13;46.63;;;;;;;20.41;40.49;100779.44;4956697;29;20062;-83
2021/12/07 09:49:11;;;;;;;50.10;47.53;;;;;;;20.41;40.39;100782.19;4955735;28;20043;-78
2021/12/07 09:51:38;;;;;;;50.55;47.97;;;;;;;20.40;40.45;100780.56;4955960;28;20042;-78
2021/12/07 09:54:06;;;;;;;50.27;47.57;;;;;;;20.40;40.25;100775.91;4954070;28;20055;-80
2021/12/07 09:56:32;;;;;;;48.85;46.15;;;;;;;20.40;40.45;100767.66;4955344;29;20395;-78
2021/12/07 09:58:59;;;;;;;50.45;47.65;;;;;;;20.42;40.29;100770.09;4956187;28;20111;-78
2021/12/07 10:01:26;;;;;;;49.13;46.53;;;;;;;20.42;40.19;100768.16;4955483;29;20035;-78
2021/12/07 10:03:52;;;;;;;50.28;47.58;;;;;;;20.42;40.33;100764.63;4938716;29;20035;-76
2021/12/07 10:06:18;;;;;;;50.22;47.42;;;;;;;20.42;40.63;100770.09;4956411;29;20027;-77
2021/12/07 10:08:44;;;;;;;49.05;46.53;;;;;;;20.43;40.57;100767.03;4956027;29;20035;-77
2021/12/07 10:11:11;;;;;;;50.67;47.97;;;;;;;20.43;40.89;100758.81;4938454;29;20115;-77
2021/12/07 10:13:41;;;;;;;50.97;48.22;;;;;;;20.45;40.77;100750.28;4955447;29;20035;-76
2021/12/07 10:16:08;;;;;;;50.13;47.42;;;;;;;20.46;40.76;100749.16;4955497;28;20031;-76
2021/12/07 10:18:36;;;;;;;50.70;48.05;;;;;;;20.47;40.86;100748.03;4955626;29;20038;-78
2021/12/07 10:21:30;;;;;;;50.57;47.67;;;;;;;20.48;40.81;100744.97;4954425;29;20027;-79
2021/12/07 10:24:06;;;;;;;50.42;47.70;;;;;;;20.49;40.88;100752.09;4948637;29;20680;-79
2021/12/07 10:26:39;;;;;;;49.50;47.00;;;;;;;20.51;40.97;100751.78;4938878;29;20480;-79
2021/12/07 10:29:17;;;;;;;51.60;49.00;;;;;;;20.52;40.64;100748.72;4955293;29;20038;-78
2021/12/07 10:31:44;;;;;;;49.03;46.42;;;;;;;20.52;40.76;100746.00;4955205;29;20109;-77
2021/12/07 10:34:17;;;;;;;50.10;47.42;;;;;;;20.54;40.91;100734.72;4955500;28;20058;-77
2021/12/07 10:36:42;;;;;;;49.90;47.40;;;;;;;20.56;40.87;100731.66;4953663;28;20471;-77
2021/12/07 10:39:25;;;;;;;51.95;49.17;;;;;;;20.57;41.16;100725.09;4953002;29;20094;-76
2021/12/07 10:41:55;;;;;;;50.20;47.50;;;;;;;20.59;40.66;100722.81;4937532;29;20428;-78
2021/12/07 10:44:21;;;;;;;49.80;47.10;;;;;;;20.58;40.94;100708.28;4954294;28;20035;-78
2021/12/07 10:47:08;;;;;;;51.78;48.60;;;;;;;20.59;40.73;100707.19;4953920;29;20035;-78
2021/12/07 10:50:08;;;;;;;49.10;46.55;;;;;;;20.60;40.96;100705.25;4954124;29;20031;-77
2021/12/07 10:52:35;;;;;;;50.88;48.00;;;;;;;20.60;40.87;100688.78;4942843;29;20506;-78
2021/12/07 10:55:15;;;;;;;51.22;48.40;;;;;;;20.60;40.59;100678.59;4953700;28;20087;-78
2021/12/07 10:57:53;;;;;;;49.35;46.65;;;;;;;20.60;41.02;100673.13;4955606;29;20094;-78
2021/12/07 11:00:40;;;;;;;51.60;48.60;;;;;;;20.60;40.95;100667.63;4954581;29;20129;-76
2021/12/07 11:03:09;;;;;;;51.17;48.58;;;;;;;20.61;40.84;100663.75;4955700;29;20193;-79
2021/12/07 11:05:40;;;;;;;49.20;46.60;;;;;;;20.63;40.67;100663.44;4953730;28;20073;-78
2021/12/07 11:08:08;;;;;;;50.33;47.55;;;;;;;20.62;40.50;100653.59;4955599;29;20058;-77
2021/12/07 11:10:38;;;;;;;50.00;47.55;;;;;;;20.62;40.73;100654.41;4954448;29;20039;-76
2021/12/07 11:13:34;;;;;;;50.90;48.22;;;;;;;20.64;40.67;100654.91;4938032;29;20031;-78
2021/12/07 11:16:03;;;;;;;54.03;51.15;;;;;;;20.64;40.66;100654.91;4937672;29;20476;-79
2021/12/07 11:18:35;;;;;;;50.80;47.97;;;;;;;20.64;40.86;100646.69;4954944;28;20031;-76
2021/12/07 11:21:04;;;;;;;49.90;47.40;;;;;;;20.66;40.62;100649.94;4954849;29;20077;-77
2021/12/07 11:23:35;;;;;;;49.75;47.20;;;;;;;20.67;40.73;100653.47;4955275;28;20110;-78
2021/12/07 11:31:21;;;;;;;52.22;49.45;;;;;;;20.69;40.98;100640.25;4955540;29;20445;-77
2021/12/07 11:33:48;;;;;;;50.67;47.60;;;;;;;20.69;40.48;100652.03;4954036;29;20125;-77
2021/12/07 11:36:17;;;;;;;51.40;48.80;;;;;;;20.69;40.41;100643.00;4938044;29;20097;-77
2021/12/07 11:38:43;;;;;;;51.00;48.20;;;;;;;20.68;40.37;100642.16;4954765;29;20031;-78
2021/12/07 11:41:32;;;;;;;52.20;49.38;;;;;;;20.69;40.15;100643.00;4937693;29;20422;-78
2021/12/07 11:44:07;;;;;;;50.95;48.25;;;;;;;20.68;40.16;100633.13;4955576;29;20035;-77
2021/12/07 11:46:36;;;;;;;52.72;49.72;;;;;;;20.69;40.32;100626.53;4955151;28;20038;-77
2021/12/07 11:49:25;;;;;;;50.88;48.17;;;;;;;20.67;39.99;100621.34;4955226;28;20058;-78
2021/12/07 11:51:55;;;;;;;51.50;48.63;;;;;;;20.66;40.19;100618.91;4958604;29;20042;-77
2021/12/07 11:54:24;;;;;;;52.90;50.03;;;;;;;20.65;39.90;100612.63;4958221;28;20051;-77
2021/12/07 11:56:50;;;;;;;50.33;47.78;;;;;;;20.64;39.79;100605.50;4956999;29;20035;-77
2021/12/07 11:59:16;;;;;;;50.85;48.15;;;;;;;20.65;39.94;100603.56;4957905;29;20035;-77
2021/12/07 12:01:45;;;;;;;51.75;48.67;;;;;;;20.63;39.95;100601.13;4940939;29;20031;-74
2021/12/07 12:04:10;;;;;;;;;;;;;;;20.61;39.96;100591.59;4957404;29;20042;-74
2021/12/07 12:06:36;;;;;;;51.92;49.15;;;;;;;20.61;39.90;100592.41;4958096;28;19915;-75
2021/12/07 12:09:03;;;;;;;50.15;47.70;;;;;;;20.62;40.20;100587.75;4940828;29;20081;-76
2021/12/07 12:12:00;;;;;;;50.35;47.75;;;;;;;20.62;40.39;100577.56;4957444;28;20031;-74
2021/12/07 12:15:00;;;;;;;49.97;47.42;;;;;;;20.63;40.45;100564.66;4956606;29;20031;-74
2021/12/07 12:17:51;;;;;;;49.83;47.22;;;;;;;20.63;40.45;100554.47;4956512;29;20034;-74
2021/12/07 12:20:42;;;;;;;51.88;49.28;;;;;;;20.64;40.34;100547.88;4957364;28;20108;-75
2021/12/07 12:23:20;;;;;;;51.85;49.17;;;;;;;20.66;40.53;100553.03;4957437;29;20031;-79
2021/12/07 12:25:55;;;;;;;50.80;48.22;;;;;;;20.66;40.72;100551.13;4957423;29;20031;-78
2021/12/07 12:28:31;;;;;;;52.63;50.00;;;;;;;20.67;40.98;100543.69;4957633;29;20063;-77
2021/12/07 12:30:57;;;;;;;51.35;48.78;;;;;;;20.68;41.00;100532.38;4958063;29;20031;-76
2021/12/07 12:33:22;;;;;;;52.88;50.17;;;;;;;20.70;40.57;100526.59;4957271;29;20086;-76
2021/12/07 12:35:52;;;;;;;52.20;49.50;;;;;;;20.71;41.02;100511.72;4956033;29;20035;-78
2021/12/07 12:38:42;;;;;;;51.45;48.70;;;;;;;20.71;40.89;100501.59;4957048;29;20105;-74
2021/12/07 12:41:10;;;;;;;52.13;49.40;;;;;;;20.72;40.78;100497.69;4956150;29;20479;-77
2021/12/07 12:43:40;;;;;;;;;;;;;;;20.71;41.02;100493.34;4956761;29;20031;-77
2021/12/07 12:46:05;;;;;;;50.38;47.80;;;;;;;20.72;41.08;100475.75;4956464;28;19961;-75
2021/12/07 12:48:32;;;;;;;50.72;48.15;;;;;;;20.74;40.78;100461.72;4956444;29;20027;-74
2021/12/07 12:50:58;;;;;;;51.25;48.60;;;;;;;20.74;41.12;100440.56;4940206;29;20070;-74
2021/12/07 12:53:31;;;;;;;52.35;49.65;;;;;;;20.77;41.16;100427.34;4956423;29;20106;-75
2021/12/07 12:56:09;;;;;;;51.47;48.92;;;;;;;20.78;41.23;100409.72;4957841;29;20055;-74
2021/12/07 12:58:42;;;;;;;50.40;47.60;;;;;;;20.78;40.98;100426.19;4957091;29;20118;-73
2021/12/07 13:01:46;;;;;;;51.65;48.83;;;;;;;20.78;41.12;100415.22;4955399;28;20388;-75
2021/12/07 13:04:26;;;;;;;52.42;49.55;;;;;;;20.79;41.17;100408.59;4897126;29;20063;-75